createdAt,value
2023-05-05T00:02:15.296Z,16.20
2023-05-05T00:04:42.966Z,16.38
2023-05-05T00:07:10.324Z,16.34
2023-05-05T00:09:37.696Z,16.00
2023-05-05T00:12:05.578Z,15.91
2023-05-05T00:14:32.897Z,16.00
2023-05-05T00:17:00.362Z,16.17
2023-05-05T00:19:28.003Z,16.42
2023-05-05T00:21:55.632Z,16.39
2023-05-05T00:24:23.004Z,16.21
2023-05-05T00:26:51.118Z,15.96
2023-05-05T00:29:18.535Z,16.25
2023-05-05T00:31:46.139Z,16.08
2023-05-05T00:34:13.748Z,16.02
2023-05-05T00:36:41.424Z,16.30
2023-05-05T00:39:08.885Z,16.06
2023-05-05T00:41:36.657Z,16.02
2023-05-05T00:44:04.152Z,15.99
2023-05-05T00:46:31.582Z,16.07
2023-05-05T00:49:00.792Z,15.77
2023-05-05T00:51:28.231Z,16.01
2023-05-05T00:53:55.905Z,16.00
2023-05-05T00:56:24.668Z,16.04
2023-05-05T00:58:52.039Z,15.59
2023-05-05T01:01:19.686Z,15.92
2023-05-05T01:03:47.400Z,15.79
2023-05-05T01:06:32.855Z,15.85
2023-05-05T01:09:19.450Z,15.60
2023-05-05T01:11:52.968Z,15.34
2023-05-05T01:14:24.496Z,15.36
2023-05-05T01:17:01.669Z,15.51
2023-05-05T01:19:54.372Z,15.40
2023-05-05T01:22:23.730Z,15.77
2023-05-05T01:25:04.050Z,15.61
2023-05-05T01:27:46.592Z,15.73
2023-05-05T01:30:26.187Z,15.47
2023-05-05T01:32:55.377Z,15.80
2023-05-05T01:35:29.394Z,15.59
2023-05-05T01:38:07.038Z,15.48
2023-05-05T01:40:38.270Z,15.83
2023-05-05T01:43:06.504Z,15.43
2023-05-05T01:45:35.939Z,15.45
2023-05-05T01:48:03.768Z,15.31
2023-05-05T01:50:31.161Z,15.52
2023-05-05T01:52:58.536Z,15.40
2023-05-05T01:55:26.324Z,15.55
2023-05-05T01:57:53.812Z,15.58
2023-05-05T02:00:21.265Z,15.32
2023-05-05T02:02:49.363Z,15.75
2023-05-05T02:05:19.187Z,15.53
2023-05-05T02:07:46.557Z,15.14
2023-05-05T02:10:14.361Z,15.34
2023-05-05T02:12:42.704Z,15.08
2023-05-05T02:15:10.511Z,15.46
2023-05-05T02:17:41.738Z,15.57
2023-05-05T02:20:11.048Z,15.40
2023-05-05T02:22:38.771Z,15.50
2023-05-05T02:25:06.694Z,15.42
2023-05-05T02:27:34.267Z,15.09
2023-05-05T02:30:07.340Z,15.42
2023-05-05T02:32:36.339Z,15.15
2023-05-05T02:35:09.214Z,15.38
2023-05-05T02:37:36.800Z,15.49
2023-05-05T02:40:05.412Z,14.56
2023-05-05T02:42:35.891Z,14.86
2023-05-05T02:45:10.697Z,15.12
2023-05-05T02:47:39.705Z,14.86
2023-05-05T02:50:08.255Z,14.97
2023-05-05T02:52:36.818Z,15.04
2023-05-05T02:55:05.086Z,15.22
2023-05-05T02:58:02.625Z,15.14
2023-05-05T03:00:39.613Z,15.03
2023-05-05T03:03:07.473Z,14.86
2023-05-05T03:05:47.452Z,14.85
2023-05-05T03:08:49.150Z,15.13
2023-05-05T03:11:46.181Z,14.81
2023-05-05T03:14:14.330Z,14.95
2023-05-05T03:16:42.652Z,14.96
2023-05-05T03:19:13.082Z,14.57
2023-05-05T03:21:41.096Z,14.10
2023-05-05T03:24:18.578Z,13.86
2023-05-05T03:26:47.549Z,14.19
2023-05-05T03:29:15.848Z,14.63
2023-05-05T03:31:43.386Z,14.28
2023-05-05T03:34:11.048Z,14.37
2023-05-05T03:36:39.223Z,14.50
2023-05-05T03:39:08.440Z,14.55
2023-05-05T03:41:35.847Z,14.41
2023-05-05T03:44:03.769Z,14.23
2023-05-05T03:46:31.292Z,14.56
2023-05-05T03:48:58.709Z,14.18
2023-05-05T03:51:26.901Z,14.68
2023-05-05T03:53:54.417Z,14.36
2023-05-05T03:56:22.746Z,14.34
2023-05-05T03:58:51.999Z,14.67
2023-05-05T04:01:19.485Z,14.89
2023-05-05T04:03:47.247Z,15.06
2023-05-05T04:06:14.728Z,14.67
2023-05-05T04:08:42.100Z,14.90
2023-05-05T04:11:09.726Z,14.66
2023-05-05T04:13:37.148Z,14.93
2023-05-05T04:16:04.824Z,14.73
2023-05-05T04:18:32.457Z,14.80
2023-05-05T04:20:59.859Z,15.27
2023-05-05T04:23:27.379Z,15.48
2023-05-05T04:25:55.017Z,15.21
2023-05-05T04:28:22.571Z,15.05
2023-05-05T04:30:50.103Z,15.16
2023-05-05T04:33:17.731Z,15.64
2023-05-05T04:35:46.222Z,15.29
2023-05-05T04:38:13.645Z,15.49
2023-05-05T04:40:41.427Z,15.29
2023-05-05T04:43:09.371Z,15.25
2023-05-05T04:45:36.942Z,15.40
2023-05-05T04:48:05.746Z,16.00
2023-05-05T04:50:33.252Z,16.03
2023-05-05T04:53:00.806Z,16.58
2023-05-05T04:55:28.575Z,16.98
2023-05-05T04:57:55.927Z,17.46
2023-05-05T05:00:24.344Z,17.55
2023-05-05T05:02:52.579Z,17.87
2023-05-05T05:05:20.059Z,18.02
2023-05-05T05:07:47.469Z,18.35
2023-05-05T05:10:15.071Z,19.25
2023-05-05T05:12:42.524Z,20.06
2023-05-05T05:15:11.273Z,20.78
2023-05-05T05:17:38.925Z,21.72
2023-05-05T05:20:07.671Z,22.74
2023-05-05T05:22:38.274Z,23.98
2023-05-05T05:25:06.351Z,25.27
2023-05-05T05:27:33.803Z,25.44
2023-05-05T05:30:01.215Z,26.23
2023-05-05T05:32:30.091Z,27.05
2023-05-05T05:34:57.605Z,28.19
2023-05-05T05:37:28.819Z,29.27
2023-05-05T05:39:56.934Z,26.38
2023-05-05T05:42:24.590Z,28.32
2023-05-05T05:44:52.096Z,30.05
2023-05-05T05:47:19.761Z,29.49
2023-05-05T05:49:47.083Z,30.73
2023-05-05T05:52:14.459Z,31.02
2023-05-05T05:54:42.176Z,31.58
2023-05-05T05:57:09.695Z,31.62
2023-05-05T05:59:37.040Z,31.72
2023-05-05T06:02:05.065Z,32.04
2023-05-05T06:04:32.995Z,32.43
2023-05-05T06:07:01.242Z,31.53
2023-05-05T06:09:28.950Z,29.77
2023-05-05T06:11:56.559Z,29.14
2023-05-05T06:14:23.985Z,28.91
2023-05-05T06:16:52.301Z,31.29
2023-05-05T06:19:20.542Z,32.62
2023-05-05T06:21:48.177Z,31.43
2023-05-05T06:24:16.026Z,30.60
2023-05-05T06:26:44.036Z,29.58
2023-05-05T06:29:12.460Z,30.59
2023-05-05T06:31:39.928Z,32.16
2023-05-05T06:34:07.565Z,31.62
2023-05-05T06:36:34.940Z,32.71
2023-05-05T06:39:02.527Z,34.19
2023-05-05T06:41:30.181Z,32.35
2023-05-05T06:43:57.492Z,28.22
2023-05-05T06:46:25.138Z,28.87
2023-05-05T06:48:53.028Z,28.96
2023-05-05T06:51:20.591Z,29.73
2023-05-05T06:53:47.926Z,28.82
2023-05-05T06:56:15.851Z,31.20
2023-05-05T06:58:43.265Z,32.11
2023-05-05T07:01:10.691Z,32.71
2023-05-05T07:03:38.358Z,32.38
2023-05-05T07:06:06.013Z,32.58
2023-05-05T07:08:33.476Z,34.03
2023-05-05T07:11:03.962Z,33.58
2023-05-05T07:13:31.293Z,35.35
2023-05-05T07:15:58.611Z,34.86
2023-05-05T07:18:26.220Z,34.38
2023-05-05T07:20:53.616Z,36.09
2023-05-05T07:23:20.984Z,36.75
2023-05-05T07:25:48.793Z,36.74
2023-05-05T07:28:16.364Z,35.89
2023-05-05T07:30:43.771Z,35.46
2023-05-05T07:33:11.464Z,37.15
2023-05-05T07:35:39.066Z,37.44
2023-05-05T07:38:07.722Z,35.60
2023-05-05T07:40:36.318Z,36.75
2023-05-05T07:43:04.743Z,37.60
2023-05-05T07:45:32.158Z,37.67
2023-05-05T07:47:59.819Z,38.36
2023-05-05T07:50:27.200Z,38.09
2023-05-05T07:53:02.546Z,38.55
2023-05-05T07:55:41.413Z,37.65
2023-05-05T07:58:10.838Z,39.76
2023-05-05T08:00:38.865Z,39.48
2023-05-05T08:03:08.951Z,39.77
2023-05-05T08:05:38.286Z,39.99
2023-05-05T08:08:06.195Z,38.58
2023-05-05T08:10:33.908Z,37.52
2023-05-05T08:13:01.335Z,38.88
2023-05-05T08:15:28.732Z,39.99
2023-05-05T08:17:56.520Z,40.20
2023-05-05T08:20:27.883Z,39.44
2023-05-05T08:22:55.753Z,40.27
2023-05-05T08:25:23.383Z,39.65
2023-05-05T08:27:50.888Z,39.41
2023-05-05T08:30:28.183Z,38.96
2023-05-05T08:32:55.661Z,39.47
2023-05-05T08:35:23.903Z,38.48
2023-05-05T08:37:51.768Z,37.27
2023-05-05T08:40:20.880Z,39.01
2023-05-05T08:42:49.010Z,35.06
2023-05-05T08:45:16.917Z,36.09
2023-05-05T08:47:45.056Z,37.17
2023-05-05T08:50:12.711Z,37.40
2023-05-05T08:52:41.979Z,37.41
2023-05-05T08:55:26.596Z,36.48
2023-05-05T08:57:57.966Z,38.35
2023-05-05T09:00:27.088Z,35.00
2023-05-05T09:02:56.982Z,36.48
2023-05-05T09:05:25.014Z,38.02
2023-05-05T09:07:52.403Z,38.28
2023-05-05T09:10:20.058Z,38.29
2023-05-05T09:12:49.555Z,36.21
2023-05-05T09:15:16.874Z,36.79
2023-05-05T09:17:44.522Z,37.90
2023-05-05T09:20:12.840Z,38.89
2023-05-05T09:22:45.031Z,39.00
2023-05-05T09:25:13.918Z,38.55
2023-05-05T09:27:48.557Z,38.11
2023-05-05T09:30:24.746Z,37.03
2023-05-05T09:32:53.544Z,37.80
2023-05-05T09:35:22.055Z,36.93
2023-05-05T09:37:49.501Z,35.37
2023-05-05T09:40:20.308Z,36.29
2023-05-05T09:42:48.152Z,32.93
2023-05-05T09:45:25.218Z,33.90
2023-05-05T09:47:58.764Z,35.12
2023-05-05T09:50:30.534Z,34.39
2023-05-05T09:53:02.629Z,34.36
2023-05-05T09:55:31.386Z,34.87
2023-05-05T09:58:21.625Z,35.21
2023-05-05T10:00:50.134Z,33.70
2023-05-05T10:03:18.822Z,32.61
2023-05-05T10:05:50.708Z,33.05
2023-05-05T10:08:19.789Z,34.57
2023-05-05T10:10:53.963Z,35.14
2023-05-05T10:13:22.512Z,36.53
2023-05-05T10:15:54.580Z,36.58
2023-05-05T10:18:22.968Z,35.91
2023-05-05T10:20:59.121Z,36.40
2023-05-05T10:23:47.999Z,36.72
2023-05-05T10:26:15.563Z,36.96
2023-05-05T10:28:55.110Z,37.29
2023-05-05T10:31:39.911Z,35.70
2023-05-05T10:34:10.277Z,33.31
2023-05-05T10:36:40.851Z,35.04
2023-05-05T10:39:10.764Z,35.72
2023-05-05T10:41:38.209Z,33.09
2023-05-05T10:44:05.936Z,32.72
2023-05-05T10:46:33.604Z,30.43
2023-05-05T10:49:41.151Z,29.60
2023-05-05T10:52:14.476Z,28.60
2023-05-05T10:55:02.496Z,28.10
2023-05-05T10:57:30.429Z,26.23
2023-05-05T10:59:57.804Z,26.18
2023-05-05T11:02:28.787Z,26.19
2023-05-05T11:05:09.744Z,26.58
2023-05-05T11:07:37.415Z,25.79
2023-05-05T11:10:06.189Z,26.63
2023-05-05T11:12:54.142Z,26.34
2023-05-05T11:15:28.103Z,26.15
2023-05-05T11:17:58.480Z,26.23
2023-05-05T11:20:35.325Z,24.95
2023-05-05T11:23:02.558Z,25.17
2023-05-05T11:25:41.176Z,25.76
2023-05-05T11:28:12.354Z,25.75
2023-05-05T11:31:03.477Z,25.03
2023-05-05T11:33:40.086Z,25.61
2023-05-05T11:36:11.796Z,25.08
2023-05-05T11:38:39.419Z,24.89
2023-05-05T11:41:12.501Z,25.24
2023-05-05T11:43:41.287Z,24.87
2023-05-05T11:46:15.541Z,24.41
2023-05-05T11:48:53.512Z,24.14
2023-05-05T11:51:22.247Z,24.64
2023-05-05T11:53:50.031Z,24.32
2023-05-05T11:56:19.360Z,23.01
2023-05-05T11:58:47.139Z,23.27
2023-05-05T12:01:14.804Z,24.31
2023-05-05T12:03:43.457Z,24.67
2023-05-05T12:06:10.983Z,24.85
2023-05-05T12:08:38.779Z,25.09
2023-05-05T12:11:08.071Z,25.28
2023-05-05T12:13:35.445Z,25.03
2023-05-05T12:16:13.082Z,25.32
2023-05-05T12:18:41.169Z,25.12
2023-05-05T12:21:18.147Z,24.41
2023-05-05T12:23:45.863Z,25.02
2023-05-05T12:26:31.727Z,24.73
2023-05-05T12:28:59.678Z,24.54
2023-05-05T12:31:37.058Z,24.82
2023-05-05T12:34:05.196Z,24.56
2023-05-05T12:36:33.640Z,24.56
2023-05-05T12:39:01.039Z,25.14
2023-05-05T12:41:28.745Z,25.01
2023-05-05T12:43:57.161Z,25.48
2023-05-05T12:46:24.676Z,25.84
2023-05-05T12:49:07.801Z,25.67
2023-05-05T12:51:36.247Z,26.12
2023-05-05T12:54:08.260Z,26.11
2023-05-05T12:56:42.943Z,26.40
2023-05-05T12:59:23.372Z,24.12
2023-05-05T13:01:58.635Z,25.10
2023-05-05T13:04:27.034Z,25.39
2023-05-05T13:07:16.100Z,25.47
2023-05-05T13:09:43.807Z,25.82
2023-05-05T13:12:12.350Z,26.18
2023-05-05T13:14:40.736Z,25.67
2023-05-05T13:17:08.731Z,25.91
2023-05-05T13:19:41.702Z,24.78
2023-05-05T13:22:10.110Z,25.95
2023-05-05T13:24:49.960Z,26.23
2023-05-05T13:27:19.848Z,25.92
2023-05-05T13:29:47.205Z,24.89
2023-05-05T13:32:14.596Z,25.44
2023-05-05T13:34:43.566Z,25.52
2023-05-05T13:37:10.970Z,25.54
2023-05-05T13:39:38.417Z,25.65
2023-05-05T13:42:06.066Z,25.91
2023-05-05T13:44:33.431Z,26.00
2023-05-05T13:47:00.975Z,25.73
2023-05-05T13:49:28.682Z,25.33
2023-05-05T13:51:56.324Z,25.38
2023-05-05T13:54:23.778Z,25.40
2023-05-05T13:56:51.423Z,25.72
2023-05-05T13:59:18.813Z,25.09
2023-05-05T14:01:46.157Z,24.82
2023-05-05T14:04:16.934Z,25.34
2023-05-05T14:06:44.661Z,25.19
2023-05-05T14:09:13.143Z,25.40
2023-05-05T14:11:41.160Z,24.23
2023-05-05T14:14:08.538Z,25.03
2023-05-05T14:16:35.935Z,24.01
2023-05-05T14:19:03.655Z,24.51
2023-05-05T14:21:32.563Z,25.20
2023-05-05T14:24:00.013Z,25.12
2023-05-05T14:26:27.644Z,24.48
2023-05-05T14:28:54.991Z,25.20
2023-05-05T14:31:22.394Z,25.43
2023-05-05T14:33:50.084Z,25.89
2023-05-05T14:36:17.553Z,25.70
2023-05-05T14:38:44.916Z,25.61
2023-05-05T14:41:12.656Z,25.12
2023-05-05T14:43:40.006Z,24.51
2023-05-05T14:46:07.543Z,24.87
2023-05-05T14:48:35.494Z,24.95
2023-05-05T14:51:02.845Z,24.75
2023-05-05T14:53:30.410Z,25.09
2023-05-05T14:55:58.026Z,24.74
2023-05-05T14:58:25.436Z,23.56
2023-05-05T15:00:52.901Z,23.83
2023-05-05T15:03:20.738Z,24.51
2023-05-05T15:05:48.134Z,25.11
2023-05-05T15:08:15.508Z,25.05
2023-05-05T15:10:43.145Z,24.67
2023-05-05T15:13:10.510Z,24.82
2023-05-05T15:15:37.923Z,23.95
2023-05-05T15:18:05.659Z,23.62
2023-05-05T15:20:33.092Z,23.78
2023-05-05T15:23:01.396Z,23.69
2023-05-05T15:25:29.227Z,24.39
2023-05-05T15:27:56.650Z,23.64
2023-05-05T15:30:24.013Z,24.13
2023-05-05T15:32:51.666Z,23.70
2023-05-05T15:35:19.183Z,24.73
2023-05-05T15:37:46.540Z,24.66
2023-05-05T15:40:14.395Z,25.01
2023-05-05T15:42:41.752Z,25.11
2023-05-05T15:45:14.856Z,24.57
2023-05-05T15:47:42.665Z,24.36
2023-05-05T15:50:10.349Z,24.42
2023-05-05T15:52:37.824Z,24.80
2023-05-05T15:55:06.672Z,24.74
2023-05-05T15:57:34.199Z,24.85
2023-05-05T16:00:01.561Z,24.31
2023-05-05T16:02:29.252Z,24.36
2023-05-05T16:04:57.133Z,24.66
2023-05-05T16:07:24.502Z,24.31
2023-05-05T16:09:52.469Z,24.65
2023-05-05T16:12:22.873Z,24.33
2023-05-05T16:14:50.294Z,24.29
2023-05-05T16:17:17.671Z,24.49
2023-05-05T16:19:45.324Z,24.69
2023-05-05T16:22:12.671Z,24.78
2023-05-05T16:24:40.736Z,24.89
2023-05-05T16:27:09.626Z,25.05
2023-05-05T16:29:36.995Z,24.80
2023-05-05T16:32:05.493Z,25.02
2023-05-05T16:34:33.203Z,25.05
2023-05-05T16:37:00.768Z,24.97
2023-05-05T16:39:28.429Z,24.75
2023-05-05T16:41:56.103Z,25.09
2023-05-05T16:44:23.477Z,25.05
2023-05-05T16:46:50.816Z,24.74
2023-05-05T16:49:18.432Z,24.71
2023-05-05T16:51:45.888Z,24.73
2023-05-05T16:54:13.280Z,24.78
2023-05-05T16:56:40.919Z,24.50
2023-05-05T16:59:08.367Z,24.60
2023-05-05T17:01:35.758Z,24.37
2023-05-05T17:04:03.429Z,24.12
2023-05-05T17:06:33.535Z,24.22
2023-05-05T17:09:00.926Z,24.25
2023-05-05T17:11:28.550Z,24.27
2023-05-05T17:13:56.321Z,24.12
2023-05-05T17:16:23.764Z,23.94
2023-05-05T17:18:53.227Z,23.92
2023-05-05T17:21:20.601Z,23.70
2023-05-05T17:23:47.939Z,23.55
2023-05-05T17:26:15.649Z,23.37
2023-05-05T17:28:43.111Z,23.32
2023-05-05T17:31:11.048Z,23.22
2023-05-05T17:33:38.708Z,23.18
2023-05-05T17:36:06.486Z,23.03
2023-05-05T17:38:33.812Z,22.79
2023-05-05T17:41:01.703Z,22.60
2023-05-05T17:43:29.046Z,22.51
2023-05-05T17:45:56.517Z,22.43
2023-05-05T17:48:24.307Z,22.44
2023-05-05T17:50:54.617Z,22.02
2023-05-05T17:53:22.394Z,22.21
2023-05-05T17:55:50.024Z,22.12
2023-05-05T17:58:17.432Z,21.65
2023-05-05T18:00:44.790Z,21.70
2023-05-05T18:03:12.538Z,21.61
2023-05-05T18:05:40.003Z,21.69
2023-05-05T18:08:07.761Z,21.31
2023-05-05T18:10:35.400Z,21.11
2023-05-05T18:13:02.811Z,21.24
2023-05-05T18:15:30.210Z,20.99
2023-05-05T18:17:57.885Z,20.94
2023-05-05T18:20:25.233Z,21.30
2023-05-05T18:22:52.596Z,21.07
2023-05-05T18:25:20.331Z,21.27
2023-05-05T18:27:47.696Z,21.09
2023-05-05T18:30:15.108Z,21.15
2023-05-05T18:32:42.733Z,21.08
2023-05-05T18:35:10.454Z,21.11
2023-05-05T18:37:38.033Z,21.11
2023-05-05T18:40:06.891Z,21.02
2023-05-05T18:42:34.304Z,20.96
2023-05-05T18:45:01.633Z,20.82
2023-05-05T18:47:29.366Z,20.80
2023-05-05T18:49:56.925Z,20.79
2023-05-05T18:52:24.298Z,20.72
2023-05-05T18:54:52.026Z,20.77
2023-05-05T18:57:19.355Z,20.88
2023-05-05T18:59:46.808Z,20.43
2023-05-05T19:02:14.441Z,20.37
2023-05-05T19:04:42.223Z,20.43
2023-05-05T19:07:09.615Z,20.30
2023-05-05T19:09:37.498Z,19.92
2023-05-05T19:12:05.100Z,20.30
2023-05-05T19:14:32.614Z,20.17
2023-05-05T19:17:01.448Z,20.24
2023-05-05T19:19:28.925Z,19.71
2023-05-05T19:21:56.814Z,19.32
2023-05-05T19:24:24.449Z,19.63
2023-05-05T19:26:51.830Z,19.76
2023-05-05T19:29:19.219Z,19.59
2023-05-05T19:31:46.924Z,19.83
2023-05-05T19:34:14.361Z,19.40
2023-05-05T19:36:41.734Z,19.69
2023-05-05T19:39:09.346Z,19.79
2023-05-05T19:41:36.684Z,19.83
2023-05-05T19:44:04.192Z,19.75
2023-05-05T19:46:31.984Z,19.35
2023-05-05T19:48:59.423Z,19.46
2023-05-05T19:51:27.185Z,19.21
2023-05-05T19:53:54.796Z,18.87
2023-05-05T19:56:23.160Z,18.53
2023-05-05T19:58:54.903Z,18.54
2023-05-05T20:01:22.521Z,18.41
2023-05-05T20:04:32.958Z,18.66
2023-05-05T20:07:00.688Z,18.23
2023-05-05T20:09:28.056Z,18.44
2023-05-05T20:11:55.808Z,18.05
2023-05-05T20:14:23.540Z,18.20
2023-05-05T20:16:50.904Z,18.33
2023-05-05T20:19:18.601Z,18.47
2023-05-05T20:21:46.216Z,18.20
2023-05-05T20:24:13.594Z,17.89
2023-05-05T20:26:41.391Z,17.83
2023-05-05T20:29:09.012Z,18.07
2023-05-05T20:31:36.979Z,18.20
2023-05-05T20:34:04.359Z,18.10
2023-05-05T20:36:32.646Z,17.84
2023-05-05T20:39:00.024Z,18.02
2023-05-05T20:41:27.379Z,18.09
2023-05-05T20:43:54.962Z,18.29
2023-05-05T20:46:22.361Z,18.43
2023-05-05T20:48:49.744Z,18.10
2023-05-05T20:51:17.446Z,18.23
2023-05-05T20:53:44.833Z,18.51
2023-05-05T20:56:12.175Z,18.29
2023-05-05T20:58:39.939Z,18.07
2023-05-05T21:01:07.342Z,18.37
2023-05-05T21:03:34.714Z,18.09
2023-05-05T21:06:02.378Z,17.88
2023-05-05T21:08:30.083Z,17.28
2023-05-05T21:10:57.455Z,17.94
2023-05-05T21:13:25.175Z,18.05
2023-05-05T21:15:52.525Z,17.91
2023-05-05T21:18:19.887Z,17.45
2023-05-05T21:20:47.490Z,17.16
2023-05-05T21:23:14.821Z,17.56
2023-05-05T21:25:42.199Z,17.32
2023-05-05T21:28:09.812Z,17.07
2023-05-05T21:30:38.033Z,17.42
2023-05-05T21:33:05.464Z,17.25
2023-05-05T21:35:33.093Z,17.25
2023-05-05T21:38:00.540Z,17.01
2023-05-05T21:40:27.885Z,17.13
2023-05-05T21:42:55.498Z,17.33
2023-05-05T21:45:22.968Z,17.45
2023-05-05T21:47:50.865Z,17.38
2023-05-05T21:50:18.527Z,16.84
2023-05-05T21:52:46.017Z,17.34
2023-05-05T21:55:13.395Z,17.46
2023-05-05T21:57:41.027Z,17.29
2023-05-05T22:00:09.178Z,17.45
2023-05-05T22:02:39.725Z,17.07
2023-05-05T22:05:07.722Z,17.30
2023-05-05T22:07:35.086Z,17.11
2023-05-05T22:10:03.668Z,17.22
2023-05-05T22:12:31.558Z,17.26
2023-05-05T22:14:58.943Z,16.74
2023-05-05T22:17:26.333Z,16.68
2023-05-05T22:19:53.956Z,16.92
2023-05-05T22:22:21.310Z,16.86
2023-05-05T22:24:48.760Z,16.60
2023-05-05T22:27:16.435Z,16.85
2023-05-05T22:29:43.818Z,16.78
2023-05-05T22:32:11.302Z,16.55
2023-05-05T22:34:38.896Z,16.34
2023-05-05T22:37:06.362Z,16.67
2023-05-05T22:39:33.803Z,16.37
2023-05-05T22:42:01.822Z,16.17
2023-05-05T22:44:29.259Z,16.81
2023-05-05T22:46:56.625Z,16.67
2023-05-05T22:49:24.317Z,15.99
2023-05-05T22:51:51.921Z,16.07
2023-05-05T22:54:19.305Z,16.29
2023-05-05T22:56:47.445Z,16.45
2023-05-05T22:59:14.817Z,16.45
2023-05-05T23:01:42.263Z,16.37
2023-05-05T23:04:09.968Z,16.54
2023-05-05T23:06:37.378Z,16.52
2023-05-05T23:09:04.866Z,15.99
2023-05-05T23:11:32.498Z,15.68
2023-05-05T23:13:59.917Z,15.88
2023-05-05T23:16:27.335Z,16.39
2023-05-05T23:18:55.019Z,15.49
2023-05-05T23:21:22.336Z,15.85
2023-05-05T23:23:49.660Z,16.30
2023-05-05T23:26:17.300Z,15.66
2023-05-05T23:28:44.657Z,15.29
2023-05-05T23:31:12.043Z,15.80
2023-05-05T23:33:39.675Z,15.24
2023-05-05T23:36:07.098Z,15.28
2023-05-05T23:38:34.507Z,15.55
2023-05-05T23:41:02.114Z,15.55
2023-05-05T23:43:29.499Z,15.49
2023-05-05T23:45:56.890Z,15.38
2023-05-05T23:48:24.561Z,15.87
2023-05-05T23:50:52.558Z,15.78
2023-05-05T23:53:19.927Z,15.64
2023-05-05T23:55:47.587Z,15.99
2023-05-05T23:58:14.962Z,15.88
